sensor_id;sensor_type;location;lat;lon;timestamp;pressure;altitude;pressure_sealevel;temperature;humidity
38253;BME280;24785;52.372;20.672;2023-05-25T00:08:25;101044.41;;;11.48;100.00
38253;BME280;24785;52.372;20.672;2023-05-25T00:18:26;101035.00;;;11.35;100.00
38253;BME280;24785;52.372;20.672;2023-05-25T00:28:26;101040.84;;;11.32;100.00
38253;BME280;24785;52.372;20.672;2023-05-25T00:38:27;101034.16;;;11.35;100.00
38253;BME280;24785;52.372;20.672;2023-05-25T00:48:28;101038.28;;;11.63;100.00
38253;BME280;24785;52.372;20.672;2023-05-25T00:58:32;101042.13;;;11.97;100.00
38253;BME280;24785;52.372;20.672;2023-05-25T01:08:34;101042.13;;;12.13;100.00
38253;BME280;24785;52.372;20.672;2023-05-25T01:18:36;101044.81;;;12.38;100.00
38253;BME280;24785;52.372;20.672;2023-05-25T01:28:45;101045.34;;;12.55;100.00
38253;BME280;24785;52.372;20.672;2023-05-25T01:38:49;101053.63;;;12.74;100.00
38253;BME280;24785;52.372;20.672;2023-05-25T01:59:07;101079.97;;;12.92;100.00
38253;BME280;24785;52.372;20.672;2023-05-25T02:09:08;101064.88;;;13.02;100.00
38253;BME280;24785;52.372;20.672;2023-05-25T02:19:09;101059.75;;;13.05;100.00
38253;BME280;24785;52.372;20.672;2023-05-25T02:29:11;101068.06;;;13.14;100.00
38253;BME280;24785;52.372;20.672;2023-05-25T02:39:12;101078.88;;;12.93;100.00
38253;BME280;24785;52.372;20.672;2023-05-25T02:49:13;101078.63;;;12.90;100.00
38253;BME280;24785;52.372;20.672;2023-05-25T02:59:14;101081.59;;;12.73;100.00
38253;BME280;24785;52.372;20.672;2023-05-25T03:09:15;101080.25;;;12.66;100.00
38253;BME280;24785;52.372;20.672;2023-05-25T03:19:16;101092.91;;;12.80;100.00
38253;BME280;24785;52.372;20.672;2023-05-25T03:29:18;101092.63;;;12.87;100.00
38253;BME280;24785;52.372;20.672;2023-05-25T03:39:19;101087.75;;;12.99;100.00
38253;BME280;24785;52.372;20.672;2023-05-25T03:49:21;101109.78;;;13.11;100.00
38253;BME280;24785;52.372;20.672;2023-05-25T03:59:22;101106.84;;;13.03;100.00
38253;BME280;24785;52.372;20.672;2023-05-25T04:09:25;101112.28;;;12.82;100.00
38253;BME280;24785;52.372;20.672;2023-05-25T04:19:25;101111.72;;;12.90;100.00
38253;BME280;24785;52.372;20.672;2023-05-25T04:29:27;101115.97;;;13.02;100.00
38253;BME280;24785;52.372;20.672;2023-05-25T04:39:28;101133.72;;;13.08;100.00
38253;BME280;24785;52.372;20.672;2023-05-25T04:49:28;101143.41;;;13.19;100.00
38253;BME280;24785;52.372;20.672;2023-05-25T04:59:29;101143.97;;;13.06;100.00
38253;BME280;24785;52.372;20.672;2023-05-25T05:09:30;101151.22;;;13.20;100.00
38253;BME280;24785;52.372;20.672;2023-05-25T05:19:31;101141.00;;;13.28;100.00
38253;BME280;24785;52.372;20.672;2023-05-25T05:29:32;101158.91;;;13.58;100.00
38253;BME280;24785;52.372;20.672;2023-05-25T05:39:33;101168.28;;;13.75;100.00
38253;BME280;24785;52.372;20.672;2023-05-25T05:49:35;101194.38;;;13.85;100.00
38253;BME280;24785;52.372;20.672;2023-05-25T05:59:38;101202.47;;;13.80;100.00
38253;BME280;24785;52.372;20.672;2023-05-25T06:09:39;101219.97;;;13.82;100.00
38253;BME280;24785;52.372;20.672;2023-05-25T06:19:41;101211.47;;;14.14;100.00
38253;BME280;24785;52.372;20.672;2023-05-25T06:29:42;101225.25;;;14.03;100.00
38253;BME280;24785;52.372;20.672;2023-05-25T06:39:42;101227.06;;;14.23;100.00
38253;BME280;24785;52.372;20.672;2023-05-25T06:49:44;101231.47;;;14.58;100.00
38253;BME280;24785;52.372;20.672;2023-05-25T06:59:45;101220.28;;;14.74;100.00
38253;BME280;24785;52.372;20.672;2023-05-25T07:09:46;101216.94;;;14.88;100.00
38253;BME280;24785;52.372;20.672;2023-05-25T07:19:47;101224.56;;;15.15;100.00
38253;BME280;24785;52.372;20.672;2023-05-25T07:29:49;101220.56;;;15.36;100.00
38253;BME280;24785;52.372;20.672;2023-05-25T07:39:50;101220.44;;;15.46;100.00
38253;BME280;24785;52.372;20.672;2023-05-25T07:49:51;101236.31;;;16.00;100.00
38253;BME280;24785;52.372;20.672;2023-05-25T07:59:52;101227.44;;;15.76;100.00
38253;BME280;24785;52.372;20.672;2023-05-25T08:09:53;101225.59;;;16.52;100.00
38253;BME280;24785;52.372;20.672;2023-05-25T08:19:54;101222.50;;;17.28;95.93
38253;BME280;24785;52.372;20.672;2023-05-25T08:29:58;101221.72;;;17.97;90.31
38253;BME280;24785;52.372;20.672;2023-05-25T08:39:59;101226.44;;;18.54;85.94
38253;BME280;24785;52.372;20.672;2023-05-25T08:50:02;101216.16;;;18.65;82.64
38253;BME280;24785;52.372;20.672;2023-05-25T09:00:05;101222.38;;;19.10;84.06
38253;BME280;24785;52.372;20.672;2023-05-25T09:10:13;101209.81;;;20.02;82.30
38253;BME280;24785;52.372;20.672;2023-05-25T09:20:15;101217.38;;;20.57;75.75
38253;BME280;24785;52.372;20.672;2023-05-25T09:30:15;101228.59;;;20.73;74.12
38253;BME280;24785;52.372;20.672;2023-05-25T09:40:16;101232.78;;;19.79;76.45
38253;BME280;24785;52.372;20.672;2023-05-25T09:50:17;101236.56;;;19.38;79.54
38253;BME280;24785;52.372;20.672;2023-05-25T10:00:18;101243.13;;;19.06;79.43
38253;BME280;24785;52.372;20.672;2023-05-25T10:10:20;101249.25;;;18.17;81.89
38253;BME280;24785;52.372;20.672;2023-05-25T10:20:24;101246.81;;;18.16;84.27
38253;BME280;24785;52.372;20.672;2023-05-25T10:30:25;101240.03;;;18.05;88.41
38253;BME280;24785;52.372;20.672;2023-05-25T10:40:27;101237.47;;;18.58;87.07
38253;BME280;24785;52.372;20.672;2023-05-25T10:50:33;101219.56;;;19.24;85.53
38253;BME280;24785;52.372;20.672;2023-05-25T11:00:34;101212.41;;;19.59;83.55
38253;BME280;24785;52.372;20.672;2023-05-25T11:10:51;101193.91;;;21.55;76.92
38253;BME280;24785;52.372;20.672;2023-05-25T11:21:10;101189.16;;;21.73;74.77
38253;BME280;24785;52.372;20.672;2023-05-25T11:31:12;101170.91;;;21.94;69.29
38253;BME280;24785;52.372;20.672;2023-05-25T11:41:16;101176.31;;;22.03;69.27
38253;BME280;24785;52.372;20.672;2023-05-25T11:51:20;101175.78;;;22.51;67.92
38253;BME280;24785;52.372;20.672;2023-05-25T12:01:22;101169.59;;;22.42;69.08
38253;BME280;24785;52.372;20.672;2023-05-25T12:11:30;101170.66;;;22.49;66.29
38253;BME280;24785;52.372;20.672;2023-05-25T12:21:31;101156.63;;;22.39;65.70
38253;BME280;24785;52.372;20.672;2023-05-25T12:31:36;101158.69;;;22.75;65.80
38253;BME280;24785;52.372;20.672;2023-05-25T12:41:50;101142.59;;;23.06;66.69
38253;BME280;24785;52.372;20.672;2023-05-25T12:51:52;101136.56;;;23.13;65.75
38253;BME280;24785;52.372;20.672;2023-05-25T13:01:53;101124.84;;;23.37;64.73
38253;BME280;24785;52.372;20.672;2023-05-25T13:11:54;101111.03;;;23.09;64.42
38253;BME280;24785;52.372;20.672;2023-05-25T13:21:56;101101.81;;;23.38;63.78
38253;BME280;24785;52.372;20.672;2023-05-25T13:31:57;101087.66;;;23.72;60.00
38253;BME280;24785;52.372;20.672;2023-05-25T13:41:58;101085.38;;;23.74;59.58
38253;BME280;24785;52.372;20.672;2023-05-25T13:51:59;101073.53;;;24.54;56.71
38253;BME280;24785;52.372;20.672;2023-05-25T14:02:00;101064.41;;;23.78;57.94
38253;BME280;24785;52.372;20.672;2023-05-25T14:12:01;101055.44;;;23.94;58.56
38253;BME280;24785;52.372;20.672;2023-05-25T14:22:02;101060.72;;;23.86;57.53
38253;BME280;24785;52.372;20.672;2023-05-25T14:32:03;101064.03;;;23.80;57.37
38253;BME280;24785;52.372;20.672;2023-05-25T14:42:04;101066.06;;;24.11;58.32
38253;BME280;24785;52.372;20.672;2023-05-25T14:52:06;101062.31;;;23.88;56.57
38253;BME280;24785;52.372;20.672;2023-05-25T15:02:07;101051.78;;;24.30;55.34
38253;BME280;24785;52.372;20.672;2023-05-25T15:12:07;101057.88;;;23.83;58.36
38253;BME280;24785;52.372;20.672;2023-05-25T15:22:08;101054.91;;;25.77;50.24
38253;BME280;24785;52.372;20.672;2023-05-25T15:32:09;101048.78;;;26.91;48.71
38253;BME280;24785;52.372;20.672;2023-05-25T15:42:12;101043.06;;;27.56;46.89
38253;BME280;24785;52.372;20.672;2023-05-25T15:52:13;101052.78;;;25.16;52.20
38253;BME280;24785;52.372;20.672;2023-05-25T16:02:14;101049.84;;;23.50;55.77
38253;BME280;24785;52.372;20.672;2023-05-25T16:12:15;101047.84;;;22.98;57.90
38253;BME280;24785;52.372;20.672;2023-05-25T16:22:16;101053.31;;;22.98;58.84
38253;BME280;24785;52.372;20.672;2023-05-25T16:32:17;101045.09;;;22.98;58.19
38253;BME280;24785;52.372;20.672;2023-05-25T16:42:18;101042.50;;;22.89;58.39
38253;BME280;24785;52.372;20.672;2023-05-25T16:52:19;101047.84;;;22.86;59.09
38253;BME280;24785;52.372;20.672;2023-05-25T17:02:20;101045.25;;;22.44;59.43
38253;BME280;24785;52.372;20.672;2023-05-25T17:12:21;101046.41;;;22.22;60.80
38253;BME280;24785;52.372;20.672;2023-05-25T17:22:22;101054.38;;;21.94;61.87
38253;BME280;24785;52.372;20.672;2023-05-25T17:32:23;101052.44;;;21.74;63.19
38253;BME280;24785;52.372;20.672;2023-05-25T17:42:24;101068.28;;;21.60;63.87
38253;BME280;24785;52.372;20.672;2023-05-25T17:52:26;101062.06;;;21.30;65.11
38253;BME280;24785;52.372;20.672;2023-05-25T18:02:29;101070.56;;;20.90;66.96
38253;BME280;24785;52.372;20.672;2023-05-25T18:12:32;101075.53;;;20.41;69.88
38253;BME280;24785;52.372;20.672;2023-05-25T18:22:34;101090.09;;;20.02;71.72
38253;BME280;24785;52.372;20.672;2023-05-25T18:32:36;101084.47;;;19.64;74.51
38253;BME280;24785;52.372;20.672;2023-05-25T18:42:38;101107.28;;;19.46;77.42
38253;BME280;24785;52.372;20.672;2023-05-25T18:52:39;101110.75;;;19.38;77.70
38253;BME280;24785;52.372;20.672;2023-05-25T19:02:41;101111.88;;;19.37;78.71
38253;BME280;24785;52.372;20.672;2023-05-25T19:12:42;101118.88;;;19.29;79.00
38253;BME280;24785;52.372;20.672;2023-05-25T19:22:43;101134.44;;;18.98;81.11
38253;BME280;24785;52.372;20.672;2023-05-25T19:32:44;101136.00;;;18.68;83.59
38253;BME280;24785;52.372;20.672;2023-05-25T19:42:45;101136.28;;;18.21;86.40
38253;BME280;24785;52.372;20.672;2023-05-25T19:52:46;101149.75;;;17.36;96.00
38253;BME280;24785;52.372;20.672;2023-05-25T20:02:49;101149.84;;;17.44;100.00
38253;BME280;24785;52.372;20.672;2023-05-25T20:12:52;101158.59;;;17.41;100.00
38253;BME280;24785;52.372;20.672;2023-05-25T20:22:52;101146.97;;;17.68;98.64
38253;BME280;24785;52.372;20.672;2023-05-25T20:32:53;101151.75;;;17.30;100.00
38253;BME280;24785;52.372;20.672;2023-05-25T20:42:55;101155.06;;;16.67;100.00
38253;BME280;24785;52.372;20.672;2023-05-25T20:52:56;101166.13;;;16.33;100.00
38253;BME280;24785;52.372;20.672;2023-05-25T21:02:57;101167.72;;;16.34;100.00
38253;BME280;24785;52.372;20.672;2023-05-25T21:12:58;101176.84;;;16.00;100.00
38253;BME280;24785;52.372;20.672;2023-05-25T21:22:59;101176.84;;;16.76;100.00
38253;BME280;24785;52.372;20.672;2023-05-25T21:33:00;101188.81;;;16.88;100.00
38253;BME280;24785;52.372;20.672;2023-05-25T21:43:01;101188.91;;;16.97;100.00
38253;BME280;24785;52.372;20.672;2023-05-25T21:53:03;101190.66;;;16.74;100.00
38253;BME280;24785;52.372;20.672;2023-05-25T22:03:04;101192.66;;;16.31;100.00
38253;BME280;24785;52.372;20.672;2023-05-25T22:13:05;101195.00;;;15.76;100.00
38253;BME280;24785;52.372;20.672;2023-05-25T22:23:07;101195.63;;;15.44;100.00
38253;BME280;24785;52.372;20.672;2023-05-25T22:33:08;101199.53;;;15.33;100.00
38253;BME280;24785;52.372;20.672;2023-05-25T22:43:09;101206.75;;;15.08;100.00
38253;BME280;24785;52.372;20.672;2023-05-25T22:53:12;101198.66;;;15.08;100.00
38253;BME280;24785;52.372;20.672;2023-05-25T23:03:13;101206.19;;;15.17;100.00
38253;BME280;24785;52.372;20.672;2023-05-25T23:13:13;101224.09;;;15.31;100.00
38253;BME280;24785;52.372;20.672;2023-05-25T23:23:14;101231.47;;;15.50;100.00
38253;BME280;24785;52.372;20.672;2023-05-25T23:33:15;101247.91;;;15.53;100.00
38253;BME280;24785;52.372;20.672;2023-05-25T23:43:18;101254.34;;;15.57;100.00
38253;BME280;24785;52.372;20.672;2023-05-25T23:53:18;101249.56;;;15.49;100.00
